AirNav   TITAN Aviation Fuels
 
 1545 users online  

9OK8 Woods Acres Airport
Henessey, Oklahoma, USA

GOING TO HENESSEY?


FAA INFORMATION EFFECTIVE 03 NOVEMBER 2022

Location

FAA Identifier: 9OK8
Lat/Long: 36-04-32.1924N 097-54-22.2006W
36-04.536540N 097-54.370010W
36.0756090,-97.9061668
(estimated)
Elevation: 1150 ft. / 351 m (estimated)
From city: 2 miles SSW of HENESSEY, OK
Time zone: UTC -6 (UTC -5 during Daylight Saving Time)
Zip code: 73742

Airport Operations

Airport use: Private use. Permission required prior to landing
Activation date: 02/2020
Control tower: no
ARTCC: KANSAS CITY CENTER
FSS: MC ALESTER FLIGHT SERVICE STATION
Attendance: 
Segmented circle: no

Airport Communications

WX AWOS-3PT at WDG (19 nm N): 123.725 (580-237-1475)

Nearby radio navigation aids

VOR radial/distance  VOR name  Freq  Var
ENDr173/16.2VANCE VORTAC115.4005E
ODGr190/18.8WOODRING VOR/DME109.0008E
PWAr331/34.9WILEY POST VOR/DME113.4008E

 
NDB name  Hdg/Dist  Freq  Var  ID
GARFY200/13.234105EEI . ..

Airport Services

Runway Information

Runway 1/19

Dimensions: 1750 x 40 ft. / 533 x 12 m
Surface: turf, in fair condition
RUNWAY 1  RUNWAY 19
Traffic pattern: leftleft

Airport Ownership and Management from official FAA records

Ownership: Privately-owned
Owner: BARRY WOODS
17345 E 650 ROAD
HENNESSEY, OK 73742
Phone 918-408-1644
Manager: BARRY WOODS
17345 E 650 ROAD
HENNESSEY, OK 73742
Phone 918-408-1644

Airport Operational Statistics

Aircraft based on the field: 1
Single engine airplanes: 1
  • TRAFFIC PATTERN AIRSPACE OVERLAP.
    

Instrument Procedures

There are no published instrument procedures at 9OK8.

Some nearby airports with instrument procedures:

KEND - Vance Air Force Base (16 nm N)
KWDG - Enid Woodring Regional Airport (19 nm N)
KGOK - Guthrie/Edmond Regional Airport (27 nm SE)
KJWG - Watonga Regional Airport (28 nm SW)
KHSD - Sundance Airport (30 nm S)
 
Loc | Ops | Rwys | IFR | FBO | Links
Com | Nav | Svcs | Stats | Notes
Aerial photo
WARNING: Photo may not be current or correct
Aerial photo of 9OK8 (Woods Acres Airport)
Photo taken 05-Sep-2020

Do you have a better or more recent aerial photo of Woods Acres Airport that you would like to share? If so, please send us your photo.

 
Airport distance calculator
Flying to Woods Acres Airport? Find the distance to fly.

From to 9OK8

Sunrise and sunset
Times for 29-Nov-2022
 Local
(UTC-6)
 Zulu
(UTC)
Morning civil twilight06:5512:55
Sunrise07:2313:23
Sunset17:1723:17
Evening civil twilight17:4523:45

Current date and time
Zulu (UTC)  29-Nov-2022 19:12:51
Local (UTC-6)  29-Nov-2022 13:12:51
 
METAR
KEND 
14nm N 
291855Z 32019KT 10SM FEW028 08/M00 A2972 RMK AO2A SLP066 T00811004 $
KWDG 
19nm N 
291745Z 32015G22KT 10SM SCT120 10/01 A2972
KJWG 
28nm SW 
291855Z AUTO 33013G20KT 10SM CLR 09/01 A2976 RMK AO2 T00920005
KGOK 
28nm SE 
291853Z AUTO 34010G18KT 10SM CLR 11/04 A2971 RMK AO2 SLP059 T01110039
TAF
KEND 
14nm N 
291800Z 2918/3024 30015G25KT 9999 SCT020 QNH2944INS BECMG 2918/2919 33015G25KT 9999 BKN010 OVC020 QNH2963INS BECMG 2923/2924 34020G30KT 9999 SCT015 QNH2985INS BECMG 3006/3007 34012KT 9999 FEW250 QNH3015INS TX09/2918Z TN05/3012Z
NOTAMs
Click for the latest NOTAMs
NOTAMs are issued by the DoD/FAA and will open in a separate window not controlled by AirNav.

 

 
 

Would you like to see your business listed on this page?

 If your business provides an interesting product or service to pilots, flight crews, aircraft, or users of the Woods Acres Airport, you should consider listing it here.  To start the listing process, click on the button below
 
Add a business
 

Other Pages about Woods Acres Airport

Update a link
 
Copyright © AirNav, LLC. All rights reserved. Privacy Policy  Contact